createdAt,value
2023-04-02T00:00:10.803Z,83.36
2023-04-02T00:03:04.724Z,83.79
2023-04-02T00:05:35.724Z,83.10
2023-04-02T00:08:19.263Z,83.96
2023-04-02T00:10:52.129Z,83.11
2023-04-02T00:13:18.957Z,83.42
2023-04-02T00:15:51.385Z,82.65
2023-04-02T00:18:22.397Z,82.31
2023-04-02T00:20:50.977Z,82.93
2023-04-02T00:23:17.783Z,83.21
2023-04-02T00:25:45.675Z,82.76
2023-04-02T00:28:15.384Z,84.07
2023-04-02T00:30:50.871Z,84.33
2023-04-02T00:33:20.452Z,84.94
2023-04-02T00:35:48.968Z,85.00
2023-04-02T00:38:23.613Z,84.86
2023-04-02T00:40:52.093Z,83.72
2023-04-02T00:43:21.165Z,84.22
2023-04-02T00:45:51.247Z,84.40
2023-04-02T00:48:33.408Z,84.88
2023-04-02T00:51:08.719Z,84.75
2023-04-02T00:53:37.474Z,84.84
2023-04-02T00:56:16.910Z,85.11
2023-04-02T00:58:44.842Z,85.23
2023-04-02T01:01:19.568Z,84.39
2023-04-02T01:03:58.481Z,84.42
2023-04-02T01:06:31.338Z,84.95
2023-04-02T01:09:13.833Z,84.38
2023-04-02T01:11:46.640Z,84.14
2023-04-02T01:14:34.664Z,83.20
2023-04-02T01:17:15.636Z,84.47
2023-04-02T01:19:54.630Z,84.05
2023-04-02T01:22:21.501Z,82.98
2023-04-02T01:24:48.882Z,83.69
2023-04-02T01:27:26.835Z,84.13
2023-04-02T01:29:58.400Z,83.94
2023-04-02T01:32:28.881Z,83.77
2023-04-02T01:34:56.990Z,82.25
2023-04-02T01:38:18.609Z,80.50
2023-04-02T01:41:12.410Z,81.78
2023-04-02T01:43:54.587Z,83.09
2023-04-02T01:46:33.291Z,83.27
2023-04-02T01:49:12.374Z,82.70
2023-04-02T01:51:43.344Z,83.86
2023-04-02T01:54:11.550Z,83.89
2023-04-02T01:56:38.569Z,83.67
2023-04-02T01:59:06.112Z,84.13
2023-04-02T02:01:36.974Z,83.90
2023-04-02T02:04:05.185Z,83.81
2023-04-02T02:06:32.055Z,83.30
2023-04-02T02:09:03.563Z,83.71
2023-04-02T02:11:33.198Z,83.47
2023-04-02T02:14:05.005Z,84.26
2023-04-02T02:16:34.046Z,84.11
2023-04-02T02:19:05.122Z,85.28
2023-04-02T02:21:47.669Z,85.56
2023-04-02T02:24:25.991Z,84.36
2023-04-02T02:27:23.739Z,82.79
2023-04-02T02:30:05.191Z,83.61
2023-04-02T02:32:33.745Z,84.16
2023-04-02T02:35:21.082Z,84.33
2023-04-02T02:37:57.937Z,84.43
2023-04-02T02:40:34.446Z,84.43
2023-04-02T02:43:03.842Z,84.74
2023-04-02T02:45:35.803Z,83.39
2023-04-02T02:48:03.998Z,83.03
2023-04-02T02:50:32.376Z,82.99
2023-04-02T02:53:05.785Z,83.41
2023-04-02T02:55:34.674Z,83.08
2023-04-02T02:58:27.532Z,83.15
2023-04-02T03:01:14.927Z,83.37
2023-04-02T03:03:44.985Z,82.70
2023-04-02T03:06:20.947Z,82.18
2023-04-02T03:09:12.398Z,83.79
2023-04-02T03:11:44.619Z,84.34
2023-04-02T03:14:22.074Z,84.27
2023-04-02T03:16:51.709Z,83.78
2023-04-02T03:19:47.593Z,84.06
2023-04-02T03:22:32.200Z,83.81
2023-04-02T03:25:26.840Z,84.30
2023-04-02T03:28:05.471Z,84.28
2023-04-02T03:30:45.402Z,83.96
2023-04-02T03:33:28.131Z,83.85
2023-04-02T03:36:13.899Z,84.14
2023-04-02T03:38:47.456Z,83.22
2023-04-02T03:41:45.393Z,83.04
2023-04-02T03:44:39.705Z,83.42
2023-04-02T03:47:25.547Z,83.09
2023-04-02T03:50:05.312Z,81.95
2023-04-02T03:52:35.774Z,83.04
2023-04-02T03:55:16.014Z,82.64
2023-04-02T03:58:01.369Z,83.10
2023-04-02T04:00:39.576Z,83.15
2023-04-02T04:03:19.694Z,83.29
2023-04-02T04:05:54.695Z,83.54
2023-04-02T04:08:26.386Z,82.46
2023-04-02T04:10:57.256Z,82.57
2023-04-02T04:13:57.052Z,83.49
2023-04-02T04:16:34.453Z,83.71
2023-04-02T04:19:08.180Z,84.19
2023-04-02T04:21:37.935Z,83.24
2023-04-02T04:24:20.420Z,83.88
2023-04-02T04:26:56.885Z,83.98
2023-04-02T04:29:38.206Z,83.20
2023-04-02T04:32:16.730Z,82.93
2023-04-02T04:34:51.582Z,83.92
2023-04-02T04:37:33.614Z,83.85
2023-04-02T04:40:07.654Z,83.10
2023-04-02T04:42:36.815Z,83.58
2023-04-02T04:45:21.156Z,82.91
2023-04-02T04:47:54.095Z,83.25
2023-04-02T04:50:23.998Z,84.35
2023-04-02T04:52:50.940Z,82.75
2023-04-02T04:55:42.814Z,83.13
2023-04-02T04:58:28.987Z,83.49
2023-04-02T05:01:11.535Z,83.36
2023-04-02T05:04:12.885Z,83.49
2023-04-02T05:06:49.939Z,83.20
2023-04-02T05:09:42.079Z,83.79
2023-04-02T05:12:22.437Z,84.30
2023-04-02T05:15:12.010Z,84.14
2023-04-02T05:18:10.761Z,83.30
2023-04-02T05:20:49.377Z,83.85
2023-04-02T05:23:31.025Z,83.45
2023-04-02T05:26:13.662Z,83.21
2023-04-02T05:29:11.818Z,83.37
2023-04-02T05:31:54.611Z,83.20
2023-04-02T05:34:29.632Z,83.68
2023-04-02T05:36:57.061Z,83.40
2023-04-02T05:39:27.199Z,83.26
2023-04-02T05:42:11.259Z,82.22
2023-04-02T05:45:08.983Z,82.29
2023-04-02T05:47:41.143Z,82.09
2023-04-02T05:50:22.133Z,82.83
2023-04-02T05:53:23.660Z,83.09
2023-04-02T05:55:58.656Z,83.23
2023-04-02T05:58:50.801Z,82.49
2023-04-02T06:01:25.695Z,82.31
2023-04-02T06:04:29.929Z,83.26
2023-04-02T06:07:17.025Z,82.91
2023-04-02T06:10:08.029Z,83.00
2023-04-02T06:12:44.634Z,82.97
2023-04-02T06:15:17.987Z,83.08
2023-04-02T06:18:09.146Z,83.02
2023-04-02T06:20:37.523Z,82.58
2023-04-02T06:23:10.712Z,82.66
2023-04-02T06:25:41.094Z,82.75
2023-04-02T06:28:15.239Z,83.11
2023-04-02T06:30:49.806Z,82.85
2023-04-02T06:33:17.927Z,83.19
2023-04-02T06:35:47.621Z,83.25
2023-04-02T06:38:25.876Z,82.71
2023-04-02T06:40:56.961Z,82.84
2023-04-02T06:43:56.958Z,81.90
2023-04-02T06:46:57.992Z,81.87
2023-04-02T06:49:57.893Z,81.70
2023-04-02T06:52:32.342Z,81.23
2023-04-02T06:55:07.558Z,81.48
2023-04-02T06:57:35.918Z,82.33
2023-04-02T07:00:03.815Z,81.57
2023-04-02T07:02:38.303Z,81.68
2023-04-02T07:05:09.433Z,80.65
2023-04-02T07:07:40.133Z,81.26
2023-04-02T07:10:10.376Z,80.81
2023-04-02T07:12:37.146Z,81.11
2023-04-02T07:15:04.585Z,80.99
2023-04-02T07:17:31.982Z,80.35
2023-04-02T07:19:59.589Z,81.25
2023-04-02T07:22:26.984Z,80.27
2023-04-02T07:24:58.836Z,79.95
2023-04-02T07:27:26.306Z,80.55
2023-04-02T07:29:53.146Z,80.02
2023-04-02T07:32:20.077Z,80.08
2023-04-02T07:34:47.326Z,80.58
2023-04-02T07:37:14.924Z,80.78
2023-04-02T07:39:42.395Z,79.77
2023-04-02T07:42:09.676Z,79.96
2023-04-02T07:44:36.704Z,80.56
2023-04-02T07:47:03.798Z,80.74
2023-04-02T07:49:30.770Z,80.96
2023-04-02T07:51:57.637Z,80.25
2023-04-02T07:54:24.413Z,80.96
2023-04-02T07:56:51.298Z,80.66
2023-04-02T07:59:18.435Z,80.18
2023-04-02T08:01:45.347Z,80.43
2023-04-02T08:04:20.787Z,80.22
2023-04-02T08:06:48.940Z,80.36
2023-04-02T08:09:16.979Z,80.79
2023-04-02T08:11:44.147Z,80.70
2023-04-02T08:14:11.512Z,79.09
2023-04-02T08:16:49.509Z,78.56
2023-04-02T08:19:16.842Z,79.30
2023-04-02T08:21:47.000Z,78.82
2023-04-02T08:24:13.921Z,78.70
2023-04-02T08:26:41.967Z,79.02
2023-04-02T08:29:09.807Z,78.65
2023-04-02T08:31:36.721Z,78.98
2023-04-02T08:34:03.901Z,78.31
2023-04-02T08:36:34.140Z,78.21
2023-04-02T08:39:01.221Z,78.51
2023-04-02T08:41:28.400Z,77.54
2023-04-02T08:43:59.704Z,77.21
2023-04-02T08:46:31.243Z,76.92
2023-04-02T08:51:41.133Z,76.90
2023-04-02T08:54:20.569Z,76.78
2023-04-02T08:56:53.800Z,76.61
2023-04-02T08:59:35.680Z,77.29
2023-04-02T09:02:05.073Z,76.88
2023-04-02T09:04:33.029Z,75.88
2023-04-02T09:07:01.052Z,75.94
2023-04-02T09:09:28.248Z,75.89
2023-04-02T09:12:00.902Z,75.53
2023-04-02T09:14:42.146Z,75.08
2023-04-02T09:17:21.823Z,75.29
2023-04-02T09:20:19.286Z,75.21
2023-04-02T09:22:48.583Z,75.69
2023-04-02T09:25:21.094Z,75.33
2023-04-02T09:27:50.194Z,75.15
2023-04-02T09:30:25.503Z,74.22
2023-04-02T09:32:54.768Z,74.68
2023-04-02T09:35:27.148Z,75.48
2023-04-02T09:38:12.718Z,74.16
2023-04-02T09:40:59.687Z,74.07
2023-04-02T09:43:31.323Z,74.12
2023-04-02T09:46:04.243Z,74.92
2023-04-02T09:48:33.662Z,74.25
2023-04-02T09:51:08.237Z,75.39
2023-04-02T09:53:39.416Z,74.61
2023-04-02T09:56:09.765Z,74.60
2023-04-02T09:58:36.552Z,75.60
2023-04-02T10:01:03.575Z,74.89
2023-04-02T10:03:33.214Z,75.52
2023-04-02T10:06:13.424Z,75.20
2023-04-02T10:08:42.777Z,75.34
2023-04-02T10:11:33.640Z,75.00
2023-04-02T10:14:37.962Z,75.25
2023-04-02T10:17:10.236Z,73.76
2023-04-02T10:19:54.084Z,73.93
2023-04-02T10:22:22.252Z,74.26
2023-04-02T10:24:50.085Z,73.73
2023-04-02T10:27:29.675Z,73.97
2023-04-02T10:30:11.973Z,74.86
2023-04-02T10:32:46.879Z,74.75
2023-04-02T10:35:16.731Z,74.35
2023-04-02T10:37:47.201Z,72.84
2023-04-02T10:40:35.692Z,73.16
2023-04-02T10:43:20.905Z,73.66
2023-04-02T10:45:56.923Z,74.38
2023-04-02T10:48:35.818Z,74.91
2023-04-02T10:51:32.357Z,73.57
2023-04-02T10:54:28.076Z,74.25
2023-04-02T10:56:59.409Z,74.84
2023-04-02T10:59:35.194Z,75.38
2023-04-02T11:02:06.935Z,75.83
2023-04-02T11:04:45.146Z,75.17
2023-04-02T11:07:19.347Z,76.34
2023-04-02T11:09:48.302Z,76.22
2023-04-02T11:12:25.341Z,75.70
2023-04-02T11:14:52.826Z,75.60
2023-04-02T11:17:20.656Z,75.18
2023-04-02T11:19:47.638Z,74.77
2023-04-02T11:22:22.952Z,75.69
2023-04-02T11:24:51.526Z,76.26
2023-04-02T11:27:27.473Z,77.12
2023-04-02T11:30:16.025Z,76.87
2023-04-02T11:32:49.726Z,77.54
2023-04-02T11:35:32.031Z,77.38
2023-04-02T11:38:11.969Z,77.51
2023-04-02T11:40:44.709Z,77.48
2023-04-02T11:43:33.244Z,77.49
2023-04-02T11:46:16.633Z,77.43
2023-04-02T11:48:43.796Z,76.87
2023-04-02T11:51:36.211Z,76.51
2023-04-02T11:54:04.376Z,76.02
2023-04-02T11:56:58.801Z,76.05
2023-04-02T11:59:35.394Z,74.07
2023-04-02T12:02:21.999Z,74.49
2023-04-02T12:05:14.690Z,73.84
2023-04-02T12:07:56.905Z,74.62
2023-04-02T12:10:34.496Z,74.21
2023-04-02T12:13:01.538Z,73.72
2023-04-02T12:15:42.083Z,72.71
2023-04-02T12:18:19.920Z,73.17
2023-04-02T12:20:56.082Z,73.57
2023-04-02T12:23:24.322Z,73.58
2023-04-02T12:26:03.582Z,74.96
2023-04-02T12:28:33.887Z,74.05
2023-04-02T12:31:09.656Z,73.65
2023-04-02T12:33:38.064Z,73.09
2023-04-02T12:36:18.323Z,72.90
2023-04-02T12:38:46.937Z,71.59
2023-04-02T12:41:32.156Z,70.33
2023-04-02T12:44:06.414Z,69.41
2023-04-02T12:46:35.112Z,69.63
2023-04-02T12:49:07.382Z,68.71
2023-04-02T12:51:36.168Z,68.24
2023-04-02T12:54:03.272Z,68.11
2023-04-02T12:56:30.437Z,67.94
2023-04-02T12:58:59.275Z,67.23
2023-04-02T13:01:28.371Z,67.67
2023-04-02T13:04:12.533Z,67.41
2023-04-02T13:06:41.296Z,66.71
2023-04-02T13:09:28.801Z,67.46
2023-04-02T13:11:56.182Z,67.04
2023-04-02T13:14:24.624Z,67.04
2023-04-02T13:16:51.597Z,65.53
2023-04-02T13:19:31.856Z,65.92
2023-04-02T13:22:01.060Z,65.44
2023-04-02T13:24:29.896Z,65.55
2023-04-02T13:26:59.846Z,65.32
2023-04-02T13:29:30.947Z,65.76
2023-04-02T13:32:01.191Z,66.17
2023-04-02T13:34:28.557Z,65.18
2023-04-02T13:36:55.571Z,66.29
2023-04-02T13:39:22.502Z,65.14
2023-04-02T13:41:56.811Z,65.19
2023-04-02T13:44:31.377Z,66.00
2023-04-02T13:46:58.422Z,65.73
2023-04-02T13:49:26.307Z,65.06
2023-04-02T13:51:58.017Z,66.29
2023-04-02T13:54:27.966Z,65.58
2023-04-02T13:56:56.014Z,65.75
2023-04-02T13:59:23.520Z,65.19
2023-04-02T14:01:52.492Z,64.68
2023-04-02T14:04:25.315Z,63.91
2023-04-02T14:07:33.266Z,64.43
2023-04-02T14:10:01.721Z,65.33
2023-04-02T14:12:35.793Z,64.77
2023-04-02T14:15:17.348Z,64.53
2023-04-02T14:17:54.064Z,63.75
2023-04-02T14:20:32.895Z,63.36
2023-04-02T14:23:12.030Z,63.44
2023-04-02T14:26:07.588Z,61.43
2023-04-02T14:28:40.197Z,62.82
2023-04-02T14:31:40.605Z,62.62
2023-04-02T14:34:34.872Z,62.85
2023-04-02T14:37:18.276Z,62.75
2023-04-02T14:39:45.011Z,63.41
2023-04-02T14:42:41.682Z,63.14
2023-04-02T14:45:11.774Z,64.19
2023-04-02T14:47:46.716Z,64.16
2023-04-02T14:50:28.122Z,64.37
2023-04-02T14:52:58.741Z,64.85
2023-04-02T14:55:33.020Z,63.23
2023-04-02T14:58:02.349Z,64.40
2023-04-02T15:00:36.851Z,62.71
2023-04-02T15:03:24.963Z,61.89
2023-04-02T15:05:56.638Z,61.34
2023-04-02T15:08:29.394Z,60.31
2023-04-02T15:11:05.742Z,60.88
2023-04-02T15:13:41.488Z,59.57
2023-04-02T15:16:14.429Z,61.82
2023-04-02T15:18:41.364Z,61.40
2023-04-02T15:21:20.142Z,63.15
2023-04-02T15:24:19.447Z,61.88
2023-04-02T15:27:05.471Z,62.12
2023-04-02T15:29:55.302Z,63.11
2023-04-02T15:32:34.475Z,62.42
2023-04-02T15:35:22.640Z,60.67
2023-04-02T15:38:01.883Z,61.36
2023-04-02T15:40:54.695Z,61.57
2023-04-02T15:43:53.755Z,61.48
2023-04-02T15:46:42.154Z,61.82
2023-04-02T15:49:27.687Z,61.38
2023-04-02T15:52:06.786Z,62.23
2023-04-02T15:54:36.699Z,61.82
2023-04-02T15:57:18.379Z,59.49
2023-04-02T15:59:53.696Z,58.30
2023-04-02T16:02:29.969Z,55.94
2023-04-02T16:05:15.335Z,55.20
2023-04-02T16:08:05.045Z,55.58
2023-04-02T16:10:43.037Z,56.29
2023-04-02T16:13:37.085Z,56.98
2023-04-02T16:16:14.788Z,57.79
2023-04-02T16:18:58.590Z,58.40
2023-04-02T16:21:29.915Z,58.50
2023-04-02T16:23:56.752Z,59.08
2023-04-02T16:26:26.884Z,59.91
2023-04-02T16:29:12.444Z,59.70
2023-04-02T16:31:59.570Z,55.32
2023-04-02T16:34:56.205Z,52.23
2023-04-02T16:37:38.327Z,50.01
2023-04-02T16:40:28.621Z,49.68
2023-04-02T16:43:20.022Z,48.92
2023-04-02T16:46:31.797Z,48.88
2023-04-02T16:49:21.668Z,48.68
2023-04-02T16:52:14.661Z,48.88
2023-04-02T16:55:01.613Z,50.96
2023-04-02T16:58:07.436Z,54.54
2023-04-02T17:00:42.610Z,56.82
2023-04-02T17:03:18.545Z,57.78
2023-04-02T17:05:45.577Z,58.45
2023-04-02T17:08:42.630Z,58.48
2023-04-02T17:11:15.574Z,59.55
2023-04-02T17:13:45.902Z,62.04
2023-04-02T17:16:22.836Z,61.70
2023-04-02T17:18:53.656Z,62.10
2023-04-02T17:21:24.752Z,63.11
2023-04-02T17:23:56.744Z,63.49
2023-04-02T17:26:27.786Z,64.13
2023-04-02T17:28:54.511Z,63.71
2023-04-02T17:31:26.388Z,64.04
2023-04-02T17:33:53.358Z,63.75
2023-04-02T17:36:32.852Z,64.66
2023-04-02T17:39:21.352Z,65.70
2023-04-02T17:42:22.369Z,65.93
2023-04-02T17:44:58.793Z,65.76
2023-04-02T17:47:43.887Z,66.86
2023-04-02T17:50:34.362Z,67.21
2023-04-02T17:53:08.747Z,66.86
2023-04-02T17:56:26.860Z,68.15
2023-04-02T17:59:15.363Z,68.04
2023-04-02T18:01:55.900Z,68.81
2023-04-02T18:04:42.635Z,68.62
2023-04-02T18:07:28.022Z,69.04
2023-04-02T18:10:04.141Z,69.00
2023-04-02T18:12:49.773Z,69.01
2023-04-02T18:15:44.272Z,69.53
2023-04-02T18:18:29.559Z,69.79
2023-04-02T18:21:12.812Z,69.83
2023-04-02T18:23:54.388Z,70.84
2023-04-02T18:26:35.538Z,71.16
2023-04-02T18:29:08.216Z,71.44
2023-04-02T18:31:47.696Z,71.92
2023-04-02T18:35:01.930Z,71.74
2023-04-02T18:37:38.052Z,71.12
2023-04-02T18:40:32.937Z,70.40
2023-04-02T18:43:00.176Z,70.86
2023-04-02T18:45:45.624Z,71.79
2023-04-02T18:48:31.465Z,71.78
2023-04-02T18:51:00.930Z,72.66
2023-04-02T18:53:29.891Z,73.25
2023-04-02T18:56:01.956Z,73.07
2023-04-02T18:58:38.389Z,73.01
2023-04-02T19:01:07.141Z,73.15
2023-04-02T19:03:44.810Z,73.52
2023-04-02T19:06:24.322Z,74.01
2023-04-02T19:09:01.872Z,72.47
2023-04-02T19:11:29.673Z,73.62
2023-04-02T19:14:01.389Z,73.21
2023-04-02T19:17:01.710Z,73.05
2023-04-02T19:19:31.144Z,73.40
2023-04-02T19:22:22.957Z,74.42
2023-04-02T19:25:00.442Z,74.02
2023-04-02T19:27:48.042Z,73.85
2023-04-02T19:30:41.840Z,73.98
2023-04-02T19:33:15.581Z,73.96
2023-04-02T19:35:49.259Z,75.30
2023-04-02T19:38:34.387Z,75.12
2023-04-02T19:41:16.268Z,74.48
2023-04-02T19:43:43.337Z,74.23
2023-04-02T19:46:10.375Z,74.92
2023-04-02T19:49:03.726Z,74.70
2023-04-02T19:51:30.684Z,74.73
2023-04-02T19:53:57.522Z,75.04
2023-04-02T19:56:24.425Z,74.58
2023-04-02T19:58:51.209Z,75.70
2023-04-02T20:01:18.251Z,75.62
2023-04-02T20:03:45.199Z,76.17
2023-04-02T20:06:12.310Z,75.47
2023-04-02T20:11:07.085Z,76.71
2023-04-02T20:13:34.019Z,75.64
2023-04-02T20:16:02.382Z,76.18
2023-04-02T20:18:30.696Z,75.70
2023-04-02T20:20:57.794Z,76.38
2023-04-02T20:23:24.941Z,76.63
2023-04-02T20:25:55.413Z,75.88
2023-04-02T20:28:23.529Z,75.13
2023-04-02T20:30:51.001Z,76.80
2023-04-02T20:33:22.675Z,76.30
2023-04-02T20:35:50.782Z,76.99
2023-04-02T20:38:18.964Z,76.39
2023-04-02T20:40:52.177Z,76.85
2023-04-02T20:43:19.077Z,77.12
2023-04-02T20:46:01.124Z,77.25
2023-04-02T20:48:30.951Z,76.13
2023-04-02T20:50:58.609Z,75.94
2023-04-02T20:53:26.504Z,77.09
2023-04-02T20:55:53.317Z,76.87
2023-04-02T20:58:20.108Z,77.61
2023-04-02T21:00:47.008Z,77.71
2023-04-02T21:03:13.896Z,76.52
2023-04-02T21:05:47.487Z,78.33
2023-04-02T21:08:14.498Z,77.84
2023-04-02T21:10:42.001Z,77.24
2023-04-02T21:13:08.925Z,77.70
2023-04-02T21:15:42.984Z,77.50
2023-04-02T21:18:11.422Z,77.13
2023-04-02T21:20:38.276Z,77.49
2023-04-02T21:23:05.110Z,77.67
2023-04-02T21:25:31.998Z,77.66
2023-04-02T21:27:58.823Z,77.39
2023-04-02T21:30:25.712Z,77.81
2023-04-02T21:32:52.628Z,77.66
2023-04-02T21:35:19.558Z,78.27
2023-04-02T21:37:46.407Z,77.95
2023-04-02T21:40:13.180Z,78.61
2023-04-02T21:42:40.042Z,78.86
2023-04-02T21:45:07.322Z,78.47
2023-04-02T21:47:34.276Z,79.17
2023-04-02T21:50:01.154Z,78.17
2023-04-02T21:52:28.040Z,78.24
2023-04-02T21:54:54.826Z,78.73
2023-04-02T21:57:21.612Z,78.23
2023-04-02T21:59:48.436Z,77.76
2023-04-02T22:02:15.532Z,78.60
2023-04-02T22:04:42.362Z,78.20
2023-04-02T22:07:09.281Z,78.76
2023-04-02T22:09:36.101Z,79.38
2023-04-02T22:12:03.187Z,79.47
2023-04-02T22:14:30.071Z,78.29
2023-04-02T22:16:59.120Z,79.37
2023-04-02T22:19:26.715Z,78.87
2023-04-02T22:21:53.734Z,79.34
2023-04-02T22:24:22.538Z,79.13
2023-04-02T22:26:49.741Z,79.84
2023-04-02T22:29:17.132Z,78.65
2023-04-02T22:31:44.125Z,79.13
2023-04-02T22:34:11.571Z,78.91
2023-04-02T22:36:41.446Z,79.42
2023-04-02T22:39:10.549Z,79.08
2023-04-02T22:41:37.591Z,79.26
2023-04-02T22:44:04.654Z,79.44
2023-04-02T22:46:31.855Z,79.61
2023-04-02T22:48:58.731Z,79.39
2023-04-02T22:51:27.820Z,79.08
2023-04-02T22:53:55.832Z,78.65
2023-04-02T22:56:32.392Z,79.01
2023-04-02T22:58:59.458Z,79.29
2023-04-02T23:01:32.975Z,79.09
2023-04-02T23:04:00.112Z,79.39
2023-04-02T23:06:28.368Z,79.51
2023-04-02T23:08:55.446Z,79.60
2023-04-02T23:11:24.780Z,80.28
2023-04-02T23:13:54.240Z,79.44
2023-04-02T23:16:23.008Z,79.53
2023-04-02T23:18:50.471Z,79.53
2023-04-02T23:21:18.538Z,78.68
2023-04-02T23:23:46.426Z,79.60
2023-04-02T23:26:26.145Z,79.72
2023-04-02T23:28:53.119Z,79.25
2023-04-02T23:31:21.626Z,79.38
2023-04-02T23:33:49.245Z,79.35
2023-04-02T23:36:23.281Z,79.63
2023-04-02T23:38:56.445Z,78.99
2023-04-02T23:41:25.161Z,79.77
2023-04-02T23:43:52.184Z,79.59
2023-04-02T23:46:20.173Z,78.95
2023-04-02T23:48:47.593Z,78.96
2023-04-02T23:51:14.554Z,79.14
2023-04-02T23:53:41.408Z,79.90
2023-04-02T23:56:08.342Z,80.02
2023-04-02T23:58:35.388Z,80.30
